createdAt,value
2023-09-10T00:00:05.667Z,29.33
2023-09-10T00:01:05.671Z,29.27
2023-09-10T00:02:05.680Z,29.28
2023-09-10T00:03:05.723Z,29.31
2023-09-10T00:04:05.704Z,29.42
2023-09-10T00:05:05.678Z,29.30
2023-09-10T00:06:05.643Z,29.27
2023-09-10T00:07:05.639Z,29.34
2023-09-10T00:08:05.724Z,29.27
2023-09-10T00:09:05.645Z,29.36
2023-09-10T00:10:05.656Z,29.27
2023-09-10T00:11:05.697Z,29.30
2023-09-10T00:12:05.662Z,29.31
2023-09-10T00:13:05.662Z,29.30
2023-09-10T00:14:05.694Z,29.30
2023-09-10T00:15:05.687Z,29.34
2023-09-10T00:16:05.738Z,29.31
2023-09-10T00:17:05.722Z,29.27
2023-09-10T00:18:05.790Z,29.30
2023-09-10T00:19:05.714Z,29.33
2023-09-10T00:20:05.749Z,29.27
2023-09-10T00:21:05.690Z,29.30
2023-09-10T00:22:05.699Z,29.30
2023-09-10T00:23:05.773Z,29.28
2023-09-10T00:24:05.708Z,29.30
2023-09-10T00:25:05.701Z,29.30
2023-09-10T00:26:05.809Z,29.36
2023-09-10T00:27:05.715Z,29.34
2023-09-10T00:28:05.724Z,29.34
2023-09-10T00:29:05.849Z,29.27
2023-09-10T00:30:05.728Z,29.28
2023-09-10T00:31:05.766Z,29.31
2023-09-10T00:32:05.812Z,29.30
2023-09-10T00:33:05.827Z,29.30
2023-09-10T00:34:05.739Z,29.30
2023-09-10T00:35:05.859Z,29.34
2023-09-10T00:36:05.751Z,29.36
2023-09-10T00:37:05.747Z,29.31
2023-09-10T00:38:05.796Z,29.30
2023-09-10T00:39:05.758Z,29.26
2023-09-10T00:40:05.768Z,29.27
2023-09-10T00:41:05.853Z,29.31
2023-09-10T00:42:05.770Z,29.43
2023-09-10T00:43:05.768Z,29.28
2023-09-10T00:44:05.814Z,29.45
2023-09-10T00:45:05.772Z,29.30
2023-09-10T00:46:05.855Z,29.45
2023-09-10T00:47:05.826Z,29.30
2023-09-10T00:48:05.848Z,29.34
2023-09-10T00:49:05.786Z,29.34
2023-09-10T00:50:05.860Z,29.39
2023-09-10T00:51:05.820Z,29.30
2023-09-10T00:52:05.808Z,29.28
2023-09-10T00:53:05.826Z,29.39
2023-09-10T00:54:05.812Z,29.42
2023-09-10T00:55:05.813Z,29.36
2023-09-10T00:56:05.903Z,29.33
2023-09-10T00:57:05.818Z,29.28
2023-09-10T00:58:05.827Z,29.36
2023-09-10T00:59:05.877Z,29.33
2023-09-10T01:00:05.832Z,29.36
2023-09-10T01:01:05.921Z,29.34
2023-09-10T01:02:05.911Z,29.31
2023-09-10T01:03:05.969Z,29.43
2023-09-10T01:04:05.846Z,29.39
2023-09-10T01:05:05.878Z,29.33
2023-09-10T01:06:05.861Z,29.39
2023-09-10T01:07:05.875Z,29.34
2023-09-10T01:08:05.885Z,29.39
2023-09-10T01:09:05.865Z,29.31
2023-09-10T01:10:05.869Z,29.37
2023-09-10T01:11:05.939Z,29.36
2023-09-10T01:12:05.880Z,29.28
2023-09-10T01:13:05.867Z,29.31
2023-09-10T01:14:05.926Z,29.33
2023-09-10T01:15:05.880Z,29.34
2023-09-10T01:16:05.889Z,29.36
2023-09-10T01:17:05.958Z,29.37
2023-09-10T01:18:05.955Z,29.43
2023-09-10T01:19:05.899Z,29.39
2023-09-10T01:20:05.931Z,29.41
2023-09-10T01:21:05.900Z,29.39
2023-09-10T01:22:05.910Z,29.41
2023-09-10T01:23:05.975Z,29.37
2023-09-10T01:24:05.914Z,29.39
2023-09-10T01:25:05.912Z,29.34
2023-09-10T01:26:06.002Z,29.34
2023-09-10T01:27:05.921Z,29.37
2023-09-10T01:28:05.972Z,29.43
2023-09-10T01:29:06.046Z,29.37
2023-09-10T01:30:05.954Z,29.43
2023-09-10T01:31:05.965Z,29.37
2023-09-10T01:32:05.989Z,29.37
2023-09-10T01:33:05.965Z,29.36
2023-09-10T01:34:05.977Z,29.39
2023-09-10T01:35:06.010Z,29.37
2023-09-10T01:36:05.957Z,29.28
2023-09-10T01:37:05.955Z,29.31
2023-09-10T01:38:06.022Z,29.37
2023-09-10T01:39:05.984Z,29.31
2023-09-10T01:40:05.973Z,29.33
2023-09-10T01:41:06.001Z,29.33
2023-09-10T01:42:05.980Z,29.37
2023-09-10T01:43:05.977Z,29.41
2023-09-10T01:44:06.032Z,29.30
2023-09-10T01:45:05.986Z,29.37
2023-09-10T01:46:06.021Z,29.42
2023-09-10T01:47:06.028Z,29.36
2023-09-10T01:48:06.024Z,29.33
2023-09-10T01:49:06.003Z,29.37
2023-09-10T01:50:06.097Z,29.34
2023-09-10T01:51:06.026Z,29.43
2023-09-10T01:52:06.017Z,29.28
2023-09-10T01:53:06.058Z,29.43
2023-09-10T01:54:06.024Z,29.31
2023-09-10T01:55:06.140Z,29.30
2023-09-10T01:56:06.102Z,29.28
2023-09-10T01:57:06.027Z,29.43
2023-09-10T01:58:06.038Z,29.37
2023-09-10T01:59:06.078Z,29.34
2023-09-10T02:00:06.044Z,29.30
2023-09-10T02:01:06.039Z,29.42
2023-09-10T02:02:06.137Z,29.31
2023-09-10T02:03:06.201Z,29.28
2023-09-10T02:04:06.168Z,29.39
2023-09-10T02:05:06.078Z,29.34
2023-09-10T02:06:06.072Z,29.33
2023-09-10T02:07:06.065Z,29.42
2023-09-10T02:08:06.134Z,29.39
2023-09-10T02:09:06.069Z,29.33
2023-09-10T02:10:06.082Z,29.37
2023-09-10T02:11:06.119Z,29.42
2023-09-10T02:12:06.086Z,29.33
2023-09-10T02:13:06.085Z,29.31
2023-09-10T02:14:06.146Z,29.41
2023-09-10T02:15:06.092Z,29.31
2023-09-10T02:16:06.130Z,29.30
2023-09-10T02:17:06.119Z,29.24
2023-09-10T02:18:06.193Z,29.34
2023-09-10T02:19:06.107Z,29.28
2023-09-10T02:20:06.159Z,29.30
2023-09-10T02:21:06.117Z,29.28
2023-09-10T02:22:06.128Z,29.33
2023-09-10T02:23:06.245Z,29.23
2023-09-10T02:24:06.129Z,29.21
2023-09-10T02:25:06.124Z,29.27
2023-09-10T02:26:06.234Z,29.18
2023-09-10T02:27:06.232Z,29.21
2023-09-10T02:28:06.136Z,29.33
2023-09-10T02:29:06.210Z,29.34
2023-09-10T02:30:06.145Z,29.33
2023-09-10T02:31:06.155Z,29.37
2023-09-10T02:32:06.180Z,29.30
2023-09-10T02:33:06.223Z,29.26
2023-09-10T02:34:06.155Z,29.24
2023-09-10T02:35:06.225Z,29.27
2023-09-10T02:36:06.161Z,29.27
2023-09-10T02:37:06.176Z,29.21
2023-09-10T02:38:06.224Z,29.24
2023-09-10T02:39:06.204Z,29.24
2023-09-10T02:40:06.175Z,29.24
2023-09-10T02:41:06.221Z,29.16
2023-09-10T02:42:06.187Z,29.11
2023-09-10T02:43:06.229Z,29.11
2023-09-10T02:44:06.262Z,29.15
2023-09-10T02:45:06.212Z,29.09
2023-09-10T02:46:06.282Z,29.16
2023-09-10T02:47:06.284Z,29.08
2023-09-10T02:48:06.249Z,29.15
2023-09-10T02:49:06.215Z,29.06
2023-09-10T02:50:06.271Z,29.18
2023-09-10T02:51:06.228Z,29.11
2023-09-10T02:52:06.223Z,29.18
2023-09-10T02:53:06.265Z,29.16
2023-09-10T02:54:06.220Z,29.12
2023-09-10T02:55:06.235Z,29.08
2023-09-10T02:56:06.262Z,29.02
2023-09-10T02:57:06.238Z,28.98
2023-09-10T02:58:06.235Z,29.04
2023-09-10T02:59:06.339Z,28.95
2023-09-10T03:00:06.242Z,28.95
2023-09-10T03:01:06.498Z,29.00
2023-09-10T03:02:06.302Z,29.00
2023-09-10T03:03:06.293Z,28.89
2023-09-10T03:04:06.361Z,29.00
2023-09-10T03:05:06.269Z,29.05
2023-09-10T03:06:06.263Z,28.96
2023-09-10T03:07:06.268Z,28.96
2023-09-10T03:08:06.309Z,28.93
2023-09-10T03:09:06.276Z,28.93
2023-09-10T03:10:06.272Z,28.92
2023-09-10T03:11:06.393Z,28.95
2023-09-10T03:12:06.279Z,28.92
2023-09-10T03:13:06.294Z,28.95
2023-09-10T03:14:06.311Z,28.95
2023-09-10T03:15:06.317Z,28.93
2023-09-10T03:16:06.324Z,28.89
2023-09-10T03:17:06.376Z,28.89
2023-09-10T03:18:06.327Z,28.86
2023-09-10T03:19:06.326Z,28.86
2023-09-10T03:20:06.333Z,28.83
2023-09-10T03:21:06.312Z,28.83
2023-09-10T03:22:06.309Z,28.80
2023-09-10T03:23:06.332Z,28.88
2023-09-10T03:24:06.315Z,28.86
2023-09-10T03:25:06.337Z,28.83
2023-09-10T03:26:06.388Z,28.78
2023-09-10T03:27:06.333Z,28.81
2023-09-10T03:28:06.343Z,28.80
2023-09-10T03:29:06.378Z,28.80
2023-09-10T03:30:06.406Z,28.85
2023-09-10T03:31:06.388Z,28.80
2023-09-10T03:32:06.421Z,28.76
2023-09-10T03:33:06.427Z,28.77
2023-09-10T03:34:06.354Z,28.80
2023-09-10T03:35:06.411Z,28.86
2023-09-10T03:36:06.418Z,28.74
2023-09-10T03:37:06.367Z,28.78
2023-09-10T03:38:06.392Z,28.78
2023-09-10T03:39:06.377Z,28.74
2023-09-10T03:40:06.365Z,28.77
2023-09-10T03:41:06.420Z,28.74
2023-09-10T03:42:06.466Z,28.70
2023-09-10T03:43:06.395Z,28.74
2023-09-10T03:44:06.398Z,28.71
2023-09-10T03:45:06.402Z,28.71
2023-09-10T03:46:06.384Z,28.73
2023-09-10T03:47:06.499Z,28.74
2023-09-10T03:48:06.435Z,28.70
2023-09-10T03:49:06.402Z,28.71
2023-09-10T03:50:06.450Z,28.74
2023-09-10T03:51:06.434Z,28.66
2023-09-10T03:52:06.404Z,28.71
2023-09-10T03:53:06.444Z,28.64
2023-09-10T03:54:06.411Z,28.74
2023-09-10T03:55:06.435Z,28.70
2023-09-10T03:56:06.472Z,28.73
2023-09-10T03:57:06.430Z,28.67
2023-09-10T03:58:06.430Z,28.70
2023-09-10T03:59:06.461Z,28.71
2023-09-10T04:00:06.448Z,28.70
2023-09-10T04:01:06.494Z,28.64
2023-09-10T04:02:06.478Z,28.73
2023-09-10T04:03:06.546Z,28.68
2023-09-10T04:04:06.449Z,28.67
2023-09-10T04:05:06.544Z,28.70
2023-09-10T04:06:06.448Z,28.64
2023-09-10T04:07:06.459Z,28.71
2023-09-10T04:08:06.462Z,28.70
2023-09-10T04:09:06.467Z,28.68
2023-09-10T04:10:06.465Z,28.64
2023-09-10T04:11:06.506Z,28.74
2023-09-10T04:12:06.466Z,28.73
2023-09-10T04:13:06.478Z,28.62
2023-09-10T04:14:06.505Z,28.68
2023-09-10T04:15:06.487Z,28.73
2023-09-10T04:16:06.494Z,28.68
2023-09-10T04:17:06.616Z,28.76
2023-09-10T04:18:06.605Z,28.70
2023-09-10T04:19:06.521Z,28.68
2023-09-10T04:20:06.621Z,28.61
2023-09-10T04:21:06.505Z,28.67
2023-09-10T04:22:06.510Z,28.66
2023-09-10T04:23:06.627Z,28.64
2023-09-10T04:24:06.526Z,28.62
2023-09-10T04:25:06.547Z,28.64
2023-09-10T04:26:06.579Z,28.62
2023-09-10T04:27:06.525Z,28.66
2023-09-10T04:28:06.513Z,28.64
2023-09-10T04:29:06.537Z,28.55
2023-09-10T04:30:06.529Z,28.58
2023-09-10T04:31:06.539Z,28.62
2023-09-10T04:32:06.560Z,28.56
2023-09-10T04:33:06.551Z,28.56
2023-09-10T04:34:06.530Z,28.58
2023-09-10T04:35:06.625Z,28.58
2023-09-10T04:36:06.533Z,28.56
2023-09-10T04:37:06.547Z,28.52
2023-09-10T04:38:06.606Z,28.56
2023-09-10T04:39:06.552Z,28.56
2023-09-10T04:40:06.548Z,28.58
2023-09-10T04:41:06.579Z,28.51
2023-09-10T04:42:06.554Z,28.54
2023-09-10T04:43:06.562Z,28.62
2023-09-10T04:44:06.624Z,28.54
2023-09-10T04:45:06.566Z,28.59
2023-09-10T04:46:06.590Z,28.66
2023-09-10T04:47:06.623Z,28.56
2023-09-10T04:48:06.601Z,28.51
2023-09-10T04:49:06.581Z,28.55
2023-09-10T04:50:06.578Z,28.58
2023-09-10T04:51:06.616Z,28.64
2023-09-10T04:52:06.579Z,28.61
2023-09-10T04:53:06.661Z,28.56
2023-09-10T04:54:06.587Z,28.62
2023-09-10T04:55:06.608Z,28.64
2023-09-10T04:56:06.622Z,28.55
2023-09-10T04:57:06.602Z,28.64
2023-09-10T04:58:06.600Z,28.64
2023-09-10T04:59:06.656Z,28.59
2023-09-10T05:00:06.601Z,28.62
2023-09-10T05:01:06.614Z,28.55
2023-09-10T05:02:06.667Z,28.56
2023-09-10T05:03:06.806Z,28.62
2023-09-10T05:04:06.668Z,28.59
2023-09-10T05:05:06.706Z,28.59
2023-09-10T05:06:06.633Z,28.59
2023-09-10T05:07:06.665Z,28.59
2023-09-10T05:08:06.648Z,28.62
2023-09-10T05:09:06.637Z,28.58
2023-09-10T05:10:06.630Z,28.59
2023-09-10T05:11:06.704Z,28.58
2023-09-10T05:12:06.636Z,28.58
2023-09-10T05:13:06.646Z,28.58
2023-09-10T05:14:06.743Z,28.55
2023-09-10T05:15:06.652Z,28.59
2023-09-10T05:16:06.674Z,28.48
2023-09-10T05:17:06.749Z,28.59
2023-09-10T05:18:06.702Z,28.55
2023-09-10T05:19:06.664Z,28.58
2023-09-10T05:20:06.733Z,28.56
2023-09-10T05:21:06.672Z,28.48
2023-09-10T05:22:06.668Z,28.55
2023-09-10T05:23:06.750Z,28.55
2023-09-10T05:24:06.671Z,28.56
2023-09-10T05:25:06.692Z,28.58
2023-09-10T05:26:06.721Z,28.52
2023-09-10T05:27:06.689Z,28.55
2023-09-10T05:28:06.689Z,28.46
2023-09-10T05:29:06.718Z,28.49
2023-09-10T05:30:06.692Z,28.49
2023-09-10T05:31:06.700Z,28.56
2023-09-10T05:32:06.751Z,28.51
2023-09-10T05:33:06.756Z,28.52
2023-09-10T05:34:06.704Z,28.48
2023-09-10T05:35:06.738Z,28.37
2023-09-10T05:36:06.711Z,28.48
2023-09-10T05:37:06.735Z,28.54
2023-09-10T05:38:06.782Z,28.40
2023-09-10T05:39:06.749Z,28.41
2023-09-10T05:40:06.724Z,28.39
2023-09-10T05:41:06.740Z,28.49
2023-09-10T05:42:06.723Z,28.40
2023-09-10T05:43:06.733Z,28.48
2023-09-10T05:44:06.809Z,28.39
2023-09-10T05:45:06.745Z,28.52
2023-09-10T05:46:07.778Z,28.51
2023-09-10T05:47:06.775Z,28.46
2023-09-10T05:48:06.785Z,28.48
2023-09-10T05:49:06.754Z,28.49
2023-09-10T05:50:06.788Z,28.46
2023-09-10T05:51:06.759Z,28.44
2023-09-10T05:52:06.777Z,28.41
2023-09-10T05:53:06.798Z,28.49
2023-09-10T05:54:06.766Z,28.51
2023-09-10T05:55:06.791Z,28.43
2023-09-10T05:56:06.799Z,28.41
2023-09-10T05:57:06.777Z,28.40
2023-09-10T05:58:06.769Z,28.43
2023-09-10T05:59:06.866Z,28.44
2023-09-10T06:00:06.775Z,28.46
2023-09-10T06:01:06.803Z,28.41
2023-09-10T06:02:06.836Z,28.43
2023-09-10T06:03:06.819Z,28.49
2023-09-10T06:04:06.870Z,28.46
2023-09-10T06:05:06.885Z,28.43
2023-09-10T06:06:06.821Z,28.43
2023-09-10T06:07:06.823Z,28.41
2023-09-10T06:08:06.892Z,28.49
2023-09-10T06:09:06.808Z,28.48
2023-09-10T06:10:06.807Z,28.43
2023-09-10T06:11:06.885Z,28.48
2023-09-10T06:12:06.810Z,28.48
2023-09-10T06:13:06.835Z,28.54
2023-09-10T06:14:06.878Z,28.40
2023-09-10T06:15:06.828Z,28.49
2023-09-10T06:16:06.846Z,28.40
2023-09-10T06:17:06.843Z,28.40
2023-09-10T06:18:06.907Z,28.46
2023-09-10T06:19:06.841Z,28.43
2023-09-10T06:20:06.923Z,28.49
2023-09-10T06:21:06.843Z,28.39
2023-09-10T06:22:06.844Z,28.37
2023-09-10T06:23:06.915Z,28.39
2023-09-10T06:24:06.847Z,28.41
2023-09-10T06:25:06.854Z,28.41
2023-09-10T06:26:06.864Z,28.44
2023-09-10T06:27:06.882Z,28.40
2023-09-10T06:28:06.857Z,28.39
2023-09-10T06:29:06.923Z,28.39
2023-09-10T06:30:06.872Z,28.39
2023-09-10T06:31:06.886Z,28.33
2023-09-10T06:32:06.977Z,28.33
2023-09-10T06:33:06.989Z,28.43
2023-09-10T06:34:06.873Z,28.39
2023-09-10T06:35:06.950Z,28.36
2023-09-10T06:36:06.882Z,28.40
2023-09-10T06:37:06.911Z,28.37
2023-09-10T06:38:06.942Z,28.36
2023-09-10T06:39:06.977Z,28.43
2023-09-10T06:40:06.892Z,28.40
2023-09-10T06:41:06.927Z,28.33
2023-09-10T06:42:06.906Z,28.36
2023-09-10T06:43:06.929Z,28.41
2023-09-10T06:44:06.975Z,28.36
2023-09-10T06:45:06.917Z,28.27
2023-09-10T06:46:06.965Z,28.40
2023-09-10T06:47:06.956Z,28.36
2023-09-10T06:48:07.007Z,28.33
2023-09-10T06:49:06.927Z,28.41
2023-09-10T06:50:06.972Z,28.36
2023-09-10T06:51:06.933Z,28.36
2023-09-10T06:52:06.932Z,28.31
2023-09-10T06:53:06.965Z,28.33
2023-09-10T06:54:06.939Z,28.33
2023-09-10T06:55:06.933Z,28.40
2023-09-10T06:56:07.002Z,28.33
2023-09-10T06:57:06.938Z,28.40
2023-09-10T06:58:06.950Z,28.34
2023-09-10T06:59:07.034Z,28.36
2023-09-10T07:00:06.953Z,28.39
2023-09-10T07:01:07.031Z,28.36
2023-09-10T07:02:07.015Z,28.36
2023-09-10T07:03:06.964Z,28.39
2023-09-10T07:04:06.966Z,28.37
2023-09-10T07:05:07.005Z,28.33
2023-09-10T07:06:07.079Z,28.39
2023-09-10T07:07:06.965Z,28.29
2023-09-10T07:08:07.016Z,28.37
2023-09-10T07:09:06.969Z,28.30
2023-09-10T07:10:06.983Z,28.30
2023-09-10T07:11:07.019Z,28.37
2023-09-10T07:12:06.989Z,28.29
2023-09-10T07:13:06.982Z,28.30
2023-09-10T07:14:07.045Z,28.33
2023-09-10T07:15:07.023Z,28.30
2023-09-10T07:16:07.038Z,28.37
2023-09-10T07:17:07.109Z,28.37
2023-09-10T07:18:07.028Z,28.39
2023-09-10T07:19:06.999Z,28.33
2023-09-10T07:20:07.040Z,28.33
2023-09-10T07:21:07.014Z,28.34
2023-09-10T07:22:07.014Z,28.31
2023-09-10T07:23:07.012Z,28.39
2023-09-10T07:24:07.019Z,28.31
2023-09-10T07:25:07.063Z,28.39
2023-09-10T07:26:07.064Z,28.41
2023-09-10T07:27:07.019Z,28.37
2023-09-10T07:28:07.031Z,28.41
2023-09-10T07:29:07.052Z,28.41
2023-09-10T07:30:07.038Z,28.40
2023-09-10T07:31:07.065Z,28.39
2023-09-10T07:32:07.072Z,28.39
2023-09-10T07:33:07.074Z,28.51
2023-09-10T07:34:07.054Z,28.34
2023-09-10T07:35:07.058Z,28.43
2023-09-10T07:36:07.058Z,28.40
2023-09-10T07:37:07.049Z,28.46
2023-09-10T07:38:07.186Z,28.46
2023-09-10T07:39:07.066Z,28.41
2023-09-10T07:40:07.064Z,28.46
2023-09-10T07:41:07.082Z,28.49
2023-09-10T07:42:07.077Z,28.44
2023-09-10T07:43:07.073Z,28.46
2023-09-10T07:44:07.123Z,28.46
2023-09-10T07:45:07.138Z,28.51
2023-09-10T07:46:07.135Z,28.44
2023-09-10T07:47:07.134Z,28.49
2023-09-10T07:48:07.145Z,28.41
2023-09-10T07:49:07.099Z,28.52
2023-09-10T07:50:07.129Z,28.52
2023-09-10T07:51:07.097Z,28.46
2023-09-10T07:52:07.106Z,28.52
2023-09-10T07:53:07.117Z,28.51
2023-09-10T07:54:07.109Z,28.51
2023-09-10T07:55:07.171Z,28.59
2023-09-10T07:56:07.146Z,28.61
2023-09-10T07:57:07.114Z,28.59
2023-09-10T07:58:07.125Z,28.59
2023-09-10T07:59:07.188Z,28.59
2023-09-10T08:00:07.123Z,28.55
2023-09-10T08:01:07.138Z,28.58
2023-09-10T08:02:07.175Z,28.59
2023-09-10T08:03:07.214Z,28.58
2023-09-10T08:04:07.276Z,28.61
2023-09-10T08:05:07.394Z,28.54
2023-09-10T08:06:07.142Z,28.59
2023-09-10T08:07:07.145Z,28.58
2023-09-10T08:08:07.162Z,28.62
2023-09-10T08:09:08.225Z,28.55
2023-09-10T08:10:07.159Z,28.61
2023-09-10T08:11:07.197Z,28.61
2023-09-10T08:12:07.162Z,28.59
2023-09-10T08:13:07.157Z,28.67
2023-09-10T08:14:07.223Z,28.62
2023-09-10T08:15:07.160Z,28.70
2023-09-10T08:16:07.172Z,28.64
2023-09-10T08:17:07.259Z,28.62
2023-09-10T08:18:07.657Z,28.70
2023-09-10T08:19:07.220Z,28.64
2023-09-10T08:20:07.214Z,28.70
2023-09-10T08:21:07.182Z,28.70
2023-09-10T08:22:07.188Z,28.73
2023-09-10T08:23:07.233Z,28.58
2023-09-10T08:24:07.194Z,28.68
2023-09-10T08:25:07.195Z,28.70
2023-09-10T08:26:07.231Z,28.66
2023-09-10T08:27:07.224Z,28.67
2023-09-10T08:28:07.216Z,28.67
2023-09-10T08:29:07.255Z,28.68
2023-09-10T08:30:07.220Z,28.68
2023-09-10T08:31:07.261Z,28.62
2023-09-10T08:32:07.246Z,28.70
2023-09-10T08:33:07.260Z,28.74
2023-09-10T08:34:07.240Z,28.66
2023-09-10T08:35:07.337Z,28.70
2023-09-10T08:36:07.242Z,28.74
2023-09-10T08:37:07.227Z,28.71
2023-09-10T08:38:07.258Z,28.71
2023-09-10T08:39:07.237Z,28.74
2023-09-10T08:40:07.315Z,28.71
2023-09-10T08:41:07.317Z,28.73
2023-09-10T08:42:07.266Z,28.73
2023-09-10T08:43:07.260Z,28.74
2023-09-10T08:44:07.293Z,28.71
2023-09-10T08:45:07.253Z,28.76
2023-09-10T08:46:07.307Z,28.77
2023-09-10T08:47:07.284Z,28.76
2023-09-10T08:48:07.324Z,28.78
2023-09-10T08:49:07.280Z,28.74
2023-09-10T08:50:07.296Z,28.80
2023-09-10T08:51:07.310Z,28.81
2023-09-10T08:52:07.281Z,28.77
2023-09-10T08:53:07.304Z,28.85
2023-09-10T08:54:07.287Z,28.78
2023-09-10T08:55:07.286Z,28.81
2023-09-10T08:56:07.381Z,28.74
2023-09-10T08:57:07.293Z,28.80
2023-09-10T08:58:07.300Z,28.85
2023-09-10T08:59:07.342Z,28.86
2023-09-10T09:00:07.314Z,28.80
2023-09-10T09:01:07.374Z,28.83
2023-09-10T09:02:07.407Z,28.80
2023-09-10T09:03:07.539Z,28.83
2023-09-10T09:04:07.319Z,28.86
2023-09-10T09:05:07.351Z,28.83
2023-09-10T09:06:07.324Z,28.85
2023-09-10T09:07:07.395Z,28.86
2023-09-10T09:08:07.347Z,28.86
2023-09-10T09:09:07.330Z,28.83
2023-09-10T09:10:07.339Z,28.86
2023-09-10T09:11:07.352Z,28.90
2023-09-10T09:12:07.354Z,28.88
2023-09-10T09:13:07.343Z,28.89
2023-09-10T09:14:07.438Z,28.88
2023-09-10T09:15:07.349Z,28.89
2023-09-10T09:16:07.386Z,28.95
2023-09-10T09:17:07.435Z,28.89
2023-09-10T09:18:07.423Z,28.92
2023-09-10T09:19:07.364Z,28.93
2023-09-10T09:20:07.481Z,28.89
2023-09-10T09:21:07.368Z,28.93
2023-09-10T09:22:07.380Z,28.88
2023-09-10T09:23:07.434Z,28.92
2023-09-10T09:24:07.382Z,28.92
2023-09-10T09:25:07.380Z,28.90
2023-09-10T09:26:07.453Z,28.90
2023-09-10T09:27:07.386Z,28.88
2023-09-10T09:28:08.777Z,28.89
2023-09-10T09:29:07.423Z,28.92
2023-09-10T09:30:07.500Z,28.92
2023-09-10T09:31:07.461Z,28.96
2023-09-10T09:32:07.426Z,28.89
2023-09-10T09:33:07.440Z,28.92
2023-09-10T09:34:07.416Z,28.98
2023-09-10T09:35:07.458Z,28.93
2023-09-10T09:36:07.420Z,28.98
2023-09-10T09:37:07.429Z,28.90
2023-09-10T09:38:07.432Z,28.93
2023-09-10T09:39:07.451Z,28.93
2023-09-10T09:40:07.438Z,28.93
2023-09-10T09:41:07.460Z,28.89
2023-09-10T09:42:07.447Z,28.95
2023-09-10T09:43:19.090Z,28.93
2023-09-10T09:44:07.493Z,28.95
2023-09-10T09:45:07.442Z,28.93
2023-09-10T09:46:07.487Z,29.02
2023-09-10T09:47:07.503Z,29.00
2023-09-10T09:48:07.506Z,29.02
2023-09-10T09:49:07.456Z,29.02
2023-09-10T09:50:07.492Z,29.05
2023-09-10T09:51:07.511Z,28.92
2023-09-10T09:52:07.473Z,29.00
2023-09-10T09:53:07.541Z,28.98
2023-09-10T09:54:07.481Z,29.04
2023-09-10T09:55:07.514Z,29.02
2023-09-10T09:56:07.553Z,28.93
2023-09-10T09:57:07.484Z,28.93
2023-09-10T09:58:07.494Z,28.96
2023-09-10T09:59:07.614Z,28.96
2023-09-10T10:00:07.501Z,28.98
2023-09-10T10:01:07.494Z,29.00
2023-09-10T10:02:07.592Z,29.05
2023-09-10T10:03:07.643Z,28.98
2023-09-10T10:04:07.567Z,28.95
2023-09-10T10:05:07.528Z,29.02
2023-09-10T10:06:07.530Z,28.98
2023-09-10T10:07:20.434Z,29.05
2023-09-10T10:08:07.599Z,28.96
2023-09-10T10:09:07.525Z,29.00
2023-09-10T10:10:07.530Z,28.96
2023-09-10T10:11:07.575Z,28.93
2023-09-10T10:12:07.567Z,28.93
2023-09-10T10:13:07.540Z,28.93
2023-09-10T10:14:07.625Z,29.00
2023-09-10T10:15:07.629Z,29.05
2023-09-10T10:16:07.629Z,29.00
2023-09-10T10:17:07.630Z,29.00
2023-09-10T10:18:07.604Z,28.92
2023-09-10T10:19:07.555Z,29.02
2023-09-10T10:20:07.601Z,28.96
2023-09-10T10:21:07.560Z,29.00
2023-09-10T10:22:07.569Z,29.00
2023-09-10T10:23:22.814Z,29.00
2023-09-10T10:24:07.596Z,29.02
2023-09-10T10:25:07.580Z,29.00
2023-09-10T10:26:07.810Z,29.05
2023-09-10T10:27:07.605Z,29.04
2023-09-10T10:28:07.590Z,28.93
2023-09-10T10:29:07.597Z,29.02
2023-09-10T10:30:07.605Z,28.98
2023-09-10T10:31:07.593Z,29.00
2023-09-10T10:32:07.646Z,28.98
2023-09-10T10:33:07.698Z,29.00
2023-09-10T10:34:07.610Z,29.02
2023-09-10T10:35:07.639Z,29.06
2023-09-10T10:36:07.626Z,29.00
2023-09-10T10:37:07.612Z,29.06
2023-09-10T10:38:07.645Z,29.02
2023-09-10T10:39:07.619Z,28.93
2023-09-10T10:40:07.638Z,29.00
2023-09-10T10:41:07.671Z,28.96
2023-09-10T10:42:07.636Z,29.09
2023-09-10T10:43:07.664Z,29.08
2023-09-10T10:44:07.700Z,29.04
2023-09-10T10:45:07.638Z,29.04
2023-09-10T10:46:07.679Z,29.02
2023-09-10T10:47:07.688Z,29.06
2023-09-10T10:48:07.706Z,29.05
2023-09-10T10:49:07.680Z,29.05
2023-09-10T10:50:07.777Z,29.02
2023-09-10T10:51:07.786Z,29.05
2023-09-10T10:52:07.676Z,29.08
2023-09-10T10:53:07.741Z,29.04
2023-09-10T10:54:07.678Z,29.04
2023-09-10T10:55:07.676Z,29.08
2023-09-10T10:56:07.750Z,29.08
2023-09-10T10:57:07.691Z,29.02
2023-09-10T10:58:07.698Z,29.06
2023-09-10T10:59:07.751Z,29.12
2023-09-10T11:00:07.689Z,29.09
2023-09-10T11:01:07.742Z,29.09
2023-09-10T11:02:07.740Z,29.08
2023-09-10T11:03:07.801Z,29.12
2023-09-10T11:04:07.702Z,29.12
2023-09-10T11:05:07.859Z,29.15
2023-09-10T11:06:07.713Z,29.05
2023-09-10T11:07:07.727Z,29.08
2023-09-10T11:08:07.729Z,29.08
2023-09-10T11:09:07.724Z,29.11
2023-09-10T11:10:07.722Z,29.05
2023-09-10T11:11:07.793Z,29.09
2023-09-10T11:12:07.735Z,29.11
2023-09-10T11:13:07.739Z,29.15
2023-09-10T11:14:07.857Z,29.18
2023-09-10T11:15:07.767Z,29.06
2023-09-10T11:16:07.825Z,29.15
2023-09-10T11:17:07.781Z,29.09
2023-09-10T11:18:07.788Z,29.09
2023-09-10T11:19:07.760Z,29.09
2023-09-10T11:20:07.777Z,29.09
2023-09-10T11:21:07.774Z,29.15
2023-09-10T11:22:07.775Z,29.06
2023-09-10T11:23:07.945Z,29.11
2023-09-10T11:24:07.773Z,29.15
2023-09-10T11:25:07.789Z,29.21
2023-09-10T11:26:07.820Z,29.16
2023-09-10T11:27:07.784Z,29.04
2023-09-10T11:28:07.780Z,29.14
2023-09-10T11:29:07.822Z,29.12
2023-09-10T11:30:07.786Z,29.09
2023-09-10T11:31:07.855Z,29.12
2023-09-10T11:32:07.830Z,29.05
2023-09-10T11:33:07.836Z,29.08
2023-09-10T11:34:07.801Z,29.11
2023-09-10T11:35:07.884Z,29.16
2023-09-10T11:36:07.819Z,29.09
2023-09-10T11:37:07.819Z,29.12
2023-09-10T11:38:07.835Z,29.12
2023-09-10T11:39:07.832Z,29.18
2023-09-10T11:40:07.822Z,29.12
2023-09-10T11:41:07.857Z,29.18
2023-09-10T11:42:07.841Z,29.12
2023-09-10T11:43:07.845Z,29.21
2023-09-10T11:44:07.874Z,29.14
2023-09-10T11:45:07.846Z,29.12
2023-09-10T11:46:07.848Z,29.12
2023-09-10T11:47:08.030Z,29.15
2023-09-10T11:48:07.960Z,29.21
2023-09-10T11:49:07.871Z,29.12
2023-09-10T11:50:07.894Z,29.15
2023-09-10T11:51:07.876Z,29.23
2023-09-10T11:52:07.873Z,29.08
2023-09-10T11:53:07.916Z,29.15
2023-09-10T11:54:07.868Z,29.16
2023-09-10T11:55:07.880Z,29.21
2023-09-10T11:56:07.947Z,29.08
2023-09-10T11:57:07.885Z,29.21
2023-09-10T11:58:07.885Z,29.18
2023-09-10T11:59:07.937Z,29.12
2023-09-10T12:00:07.905Z,29.16
2023-09-10T12:01:07.932Z,29.18
2023-09-10T12:02:07.916Z,29.14
2023-09-10T12:03:08.009Z,29.21
2023-09-10T12:04:08.040Z,29.26
2023-09-10T12:05:07.978Z,29.21
2023-09-10T12:06:07.914Z,29.23
2023-09-10T12:07:07.925Z,29.14
2023-09-10T12:08:07.926Z,29.19
2023-09-10T12:09:07.928Z,29.18
2023-09-10T12:10:07.923Z,29.23
2023-09-10T12:11:07.966Z,29.19
2023-09-10T12:12:07.933Z,29.19
2023-09-10T12:13:07.941Z,29.18
2023-09-10T12:14:07.997Z,29.12
2023-09-10T12:15:07.949Z,29.24
2023-09-10T12:16:08.019Z,29.19
2023-09-10T12:17:08.001Z,29.21
2023-09-10T12:18:07.989Z,29.18
2023-09-10T12:19:09.198Z,29.18
2023-09-10T12:20:07.962Z,29.23
2023-09-10T12:21:07.968Z,29.16
2023-09-10T12:22:07.963Z,29.21
2023-09-10T12:23:08.019Z,29.26
2023-09-10T12:24:07.974Z,29.24
2023-09-10T12:25:07.983Z,29.24
2023-09-10T12:26:07.985Z,29.24
2023-09-10T12:27:07.992Z,29.26
2023-09-10T12:28:08.011Z,29.27
2023-09-10T12:29:08.026Z,29.24
2023-09-10T12:30:07.992Z,29.28
2023-09-10T12:31:08.090Z,29.30
2023-09-10T12:32:08.052Z,29.26
2023-09-10T12:33:08.032Z,29.26
2023-09-10T12:34:08.008Z,29.24
2023-09-10T12:35:08.074Z,29.30
2023-09-10T12:36:08.015Z,29.26
2023-09-10T12:37:08.025Z,29.30
2023-09-10T12:38:08.042Z,29.26
2023-09-10T12:39:08.037Z,29.26
2023-09-10T12:40:08.036Z,29.26
2023-09-10T12:41:08.047Z,29.34
2023-09-10T12:42:08.033Z,29.33
2023-09-10T12:43:08.045Z,29.34
2023-09-10T12:44:08.085Z,29.27
2023-09-10T12:45:08.052Z,29.30
2023-09-10T12:46:08.045Z,29.24
2023-09-10T12:47:09.695Z,29.23
2023-09-10T12:48:08.146Z,29.30
2023-09-10T12:49:08.069Z,29.26
2023-09-10T12:50:08.097Z,29.26
2023-09-10T12:51:08.310Z,29.27
2023-09-10T12:52:08.071Z,29.27